sensor_id;sensor_type;location;lat;lon;timestamp;P1;durP1;ratioP1;P2;durP2;ratioP2
29688;SDS011;16600;47.444;8.334;2023-07-13T00:00:13;8.13;;;5.78;;
29688;SDS011;16600;47.444;8.334;2023-07-13T00:02:42;6.03;;;4.78;;
29688;SDS011;16600;47.444;8.334;2023-07-13T00:05:08;7.72;;;5.55;;
29688;SDS011;16600;47.444;8.334;2023-07-13T00:07:34;9.32;;;5.00;;
29688;SDS011;16600;47.444;8.334;2023-07-13T00:10:01;5.68;;;4.80;;
29688;SDS011;16600;47.444;8.334;2023-07-13T00:12:29;13.38;;;4.75;;
29688;SDS011;16600;47.444;8.334;2023-07-13T00:14:58;6.80;;;4.97;;
29688;SDS011;16600;47.444;8.334;2023-07-13T00:17:25;5.25;;;4.22;;
29688;SDS011;16600;47.444;8.334;2023-07-13T00:19:51;8.52;;;4.35;;
29688;SDS011;16600;47.444;8.334;2023-07-13T00:22:17;18.10;;;5.20;;
29688;SDS011;16600;47.444;8.334;2023-07-13T00:24:43;7.20;;;4.78;;
29688;SDS011;16600;47.444;8.334;2023-07-13T00:27:09;7.90;;;5.00;;
29688;SDS011;16600;47.444;8.334;2023-07-13T00:29:36;6.65;;;4.40;;
29688;SDS011;16600;47.444;8.334;2023-07-13T00:32:04;5.25;;;4.07;;
29688;SDS011;16600;47.444;8.334;2023-07-13T00:34:31;7.38;;;3.28;;
29688;SDS011;16600;47.444;8.334;2023-07-13T00:36:56;5.60;;;3.03;;
29688;SDS011;16600;47.444;8.334;2023-07-13T00:39:22;4.07;;;2.72;;
29688;SDS011;16600;47.444;8.334;2023-07-13T00:41:48;4.63;;;3.03;;
29688;SDS011;16600;47.444;8.334;2023-07-13T00:44:14;5.47;;;3.38;;
29688;SDS011;16600;47.444;8.334;2023-07-13T00:46:42;3.72;;;3.05;;
29688;SDS011;16600;47.444;8.334;2023-07-13T00:49:12;6.28;;;3.65;;
29688;SDS011;16600;47.444;8.334;2023-07-13T00:51:58;6.13;;;4.00;;
29688;SDS011;16600;47.444;8.334;2023-07-13T00:54:32;4.37;;;3.87;;
29688;SDS011;16600;47.444;8.334;2023-07-13T00:57:00;11.50;;;4.20;;
29688;SDS011;16600;47.444;8.334;2023-07-13T00:59:27;9.25;;;4.88;;
29688;SDS011;16600;47.444;8.334;2023-07-13T01:01:52;4.20;;;3.80;;
29688;SDS011;16600;47.444;8.334;2023-07-13T03:50:35;5.75;;;4.13;;
29688;SDS011;16600;47.444;8.334;2023-07-13T03:53:02;8.90;;;4.13;;
29688;SDS011;16600;47.444;8.334;2023-07-13T03:55:28;13.07;;;4.18;;
29688;SDS011;16600;47.444;8.334;2023-07-13T03:57:54;3.88;;;3.38;;
29688;SDS011;16600;47.444;8.334;2023-07-13T04:03:02;8.10;;;4.20;;
29688;SDS011;16600;47.444;8.334;2023-07-13T04:05:30;6.53;;;3.75;;
29688;SDS011;16600;47.444;8.334;2023-07-13T04:07:56;5.07;;;3.90;;
29688;SDS011;16600;47.444;8.334;2023-07-13T04:10:21;7.30;;;3.15;;
29688;SDS011;16600;47.444;8.334;2023-07-13T04:12:46;5.43;;;3.90;;
29688;SDS011;16600;47.444;8.334;2023-07-13T04:15:12;2.75;;;2.50;;
29688;SDS011;16600;47.444;8.334;2023-07-13T04:17:38;4.43;;;2.72;;
29688;SDS011;16600;47.444;8.334;2023-07-13T04:20:03;3.15;;;2.40;;
29688;SDS011;16600;47.444;8.334;2023-07-13T04:22:29;4.50;;;2.35;;
29688;SDS011;16600;47.444;8.334;2023-07-13T04:24:55;4.47;;;2.67;;
29688;SDS011;16600;47.444;8.334;2023-07-13T04:27:20;4.18;;;2.58;;
29688;SDS011;16600;47.444;8.334;2023-07-13T04:29:46;2.97;;;2.30;;
29688;SDS011;16600;47.444;8.334;2023-07-13T04:32:11;3.47;;;2.40;;
29688;SDS011;16600;47.444;8.334;2023-07-13T04:34:37;5.78;;;2.88;;
29688;SDS011;16600;47.444;8.334;2023-07-13T04:37:02;8.07;;;2.72;;
29688;SDS011;16600;47.444;8.334;2023-07-13T04:39:29;2.60;;;2.40;;
29688;SDS011;16600;47.444;8.334;2023-07-13T04:41:55;2.88;;;2.22;;
29688;SDS011;16600;47.444;8.334;2023-07-13T04:44:21;2.70;;;2.13;;
29688;SDS011;16600;47.444;8.334;2023-07-13T04:46:47;5.18;;;2.90;;
29688;SDS011;16600;47.444;8.334;2023-07-13T04:49:12;3.03;;;2.25;;
29688;SDS011;16600;47.444;8.334;2023-07-13T04:51:38;5.40;;;2.47;;
29688;SDS011;16600;47.444;8.334;2023-07-13T04:54:04;3.35;;;2.30;;
29688;SDS011;16600;47.444;8.334;2023-07-13T04:56:30;3.05;;;2.72;;
29688;SDS011;16600;47.444;8.334;2023-07-13T04:58:55;5.68;;;3.33;;
29688;SDS011;16600;47.444;8.334;2023-07-13T05:01:21;2.88;;;2.58;;
29688;SDS011;16600;47.444;8.334;2023-07-13T05:03:47;4.95;;;2.85;;
29688;SDS011;16600;47.444;8.334;2023-07-13T05:06:13;4.20;;;3.00;;
29688;SDS011;16600;47.444;8.334;2023-07-13T05:08:39;3.80;;;2.95;;
29688;SDS011;16600;47.444;8.334;2023-07-13T05:11:05;4.05;;;3.65;;
29688;SDS011;16600;47.444;8.334;2023-07-13T05:13:32;4.03;;;3.05;;
29688;SDS011;16600;47.444;8.334;2023-07-13T05:15:58;5.43;;;3.53;;
29688;SDS011;16600;47.444;8.334;2023-07-13T05:18:24;5.50;;;4.13;;
29688;SDS011;16600;47.444;8.334;2023-07-13T05:21:00;5.47;;;2.90;;
29688;SDS011;16600;47.444;8.334;2023-07-13T05:23:26;6.80;;;3.35;;
29688;SDS011;16600;47.444;8.334;2023-07-13T05:25:52;5.65;;;3.80;;
29688;SDS011;16600;47.444;8.334;2023-07-13T05:28:17;6.93;;;3.42;;
29688;SDS011;16600;47.444;8.334;2023-07-13T05:30:46;3.45;;;2.80;;
29688;SDS011;16600;47.444;8.334;2023-07-13T05:33:12;3.55;;;3.25;;
29688;SDS011;16600;47.444;8.334;2023-07-13T05:35:38;4.90;;;2.55;;
29688;SDS011;16600;47.444;8.334;2023-07-13T05:38:03;3.50;;;2.10;;
29688;SDS011;16600;47.444;8.334;2023-07-13T05:40:29;8.30;;;3.25;;
29688;SDS011;16600;47.444;8.334;2023-07-13T05:42:55;4.88;;;3.08;;
29688;SDS011;16600;47.444;8.334;2023-07-13T05:45:20;2.90;;;2.63;;
29688;SDS011;16600;47.444;8.334;2023-07-13T05:47:46;4.20;;;3.22;;
29688;SDS011;16600;47.444;8.334;2023-07-13T05:50:12;6.07;;;4.20;;
29688;SDS011;16600;47.444;8.334;2023-07-13T05:52:37;5.45;;;2.95;;
29688;SDS011;16600;47.444;8.334;2023-07-13T05:55:03;4.28;;;2.85;;
29688;SDS011;16600;47.444;8.334;2023-07-13T05:57:29;4.32;;;2.58;;
29688;SDS011;16600;47.444;8.334;2023-07-13T05:59:55;3.05;;;2.65;;
29688;SDS011;16600;47.444;8.334;2023-07-13T06:02:20;7.00;;;2.95;;
29688;SDS011;16600;47.444;8.334;2023-07-13T06:04:46;3.60;;;2.92;;
29688;SDS011;16600;47.444;8.334;2023-07-13T06:07:11;4.38;;;2.60;;
29688;SDS011;16600;47.444;8.334;2023-07-13T06:09:37;2.88;;;2.63;;
29688;SDS011;16600;47.444;8.334;2023-07-13T06:12:04;6.18;;;3.20;;
29688;SDS011;16600;47.444;8.334;2023-07-13T06:14:29;3.53;;;3.10;;
29688;SDS011;16600;47.444;8.334;2023-07-13T06:16:55;3.72;;;2.55;;
29688;SDS011;16600;47.444;8.334;2023-07-13T06:19:20;2.42;;;2.22;;
29688;SDS011;16600;47.444;8.334;2023-07-13T06:21:46;3.15;;;2.40;;
29688;SDS011;16600;47.444;8.334;2023-07-13T06:24:11;2.75;;;2.55;;
29688;SDS011;16600;47.444;8.334;2023-07-13T06:26:37;6.25;;;2.90;;
29688;SDS011;16600;47.444;8.334;2023-07-13T06:29:03;4.97;;;2.90;;
29688;SDS011;16600;47.444;8.334;2023-07-13T06:31:28;3.35;;;2.60;;
29688;SDS011;16600;47.444;8.334;2023-07-13T06:33:54;4.32;;;2.85;;
29688;SDS011;16600;47.444;8.334;2023-07-13T06:36:19;3.63;;;2.45;;
29688;SDS011;16600;47.444;8.334;2023-07-13T06:38:45;2.35;;;2.15;;
29688;SDS011;16600;47.444;8.334;2023-07-13T06:41:11;4.70;;;2.63;;
29688;SDS011;16600;47.444;8.334;2023-07-13T06:43:36;2.92;;;2.45;;
29688;SDS011;16600;47.444;8.334;2023-07-13T06:46:02;3.03;;;2.17;;
29688;SDS011;16600;47.444;8.334;2023-07-13T06:48:28;4.10;;;3.20;;
29688;SDS011;16600;47.444;8.334;2023-07-13T06:50:53;4.90;;;2.80;;
29688;SDS011;16600;47.444;8.334;2023-07-13T06:53:19;2.47;;;2.22;;
29688;SDS011;16600;47.444;8.334;2023-07-13T06:55:45;4.07;;;2.70;;
29688;SDS011;16600;47.444;8.334;2023-07-13T06:58:11;3.60;;;3.17;;
29688;SDS011;16600;47.444;8.334;2023-07-13T07:00:37;4.35;;;2.60;;
29688;SDS011;16600;47.444;8.334;2023-07-13T07:03:02;3.60;;;2.70;;
29688;SDS011;16600;47.444;8.334;2023-07-13T07:05:28;2.80;;;2.35;;
29688;SDS011;16600;47.444;8.334;2023-07-13T07:07:54;5.85;;;2.92;;
29688;SDS011;16600;47.444;8.334;2023-07-13T07:10:20;2.88;;;2.60;;
29688;SDS011;16600;47.444;8.334;2023-07-13T07:12:46;6.68;;;2.53;;
29688;SDS011;16600;47.444;8.334;2023-07-13T07:15:12;5.28;;;2.30;;
29688;SDS011;16600;47.444;8.334;2023-07-13T07:17:37;6.18;;;2.92;;
29688;SDS011;16600;47.444;8.334;2023-07-13T07:20:03;10.00;;;2.45;;
29688;SDS011;16600;47.444;8.334;2023-07-13T07:22:29;22.77;;;2.85;;
29688;SDS011;16600;47.444;8.334;2023-07-13T07:24:55;3.58;;;2.80;;
29688;SDS011;16600;47.444;8.334;2023-07-13T07:27:21;5.90;;;3.00;;
29688;SDS011;16600;47.444;8.334;2023-07-13T07:29:46;3.95;;;3.05;;
29688;SDS011;16600;47.444;8.334;2023-07-13T07:32:12;9.40;;;3.28;;
29688;SDS011;16600;47.444;8.334;2023-07-13T07:34:37;12.40;;;5.88;;
29688;SDS011;16600;47.444;8.334;2023-07-13T07:37:03;5.60;;;3.00;;
29688;SDS011;16600;47.444;8.334;2023-07-13T07:39:29;6.78;;;2.72;;
29688;SDS011;16600;47.444;8.334;2023-07-13T07:41:54;2.50;;;2.15;;
29688;SDS011;16600;47.444;8.334;2023-07-13T07:44:20;2.65;;;2.30;;
29688;SDS011;16600;47.444;8.334;2023-07-13T07:46:46;6.10;;;2.28;;
29688;SDS011;16600;47.444;8.334;2023-07-13T07:49:12;4.10;;;2.90;;
29688;SDS011;16600;47.444;8.334;2023-07-13T07:51:37;5.07;;;2.65;;
29688;SDS011;16600;47.444;8.334;2023-07-13T07:54:03;2.83;;;2.25;;
29688;SDS011;16600;47.444;8.334;2023-07-13T07:56:30;4.10;;;2.30;;
29688;SDS011;16600;47.444;8.334;2023-07-13T07:58:55;2.53;;;2.33;;
29688;SDS011;16600;47.444;8.334;2023-07-13T08:01:21;3.22;;;2.03;;
29688;SDS011;16600;47.444;8.334;2023-07-13T08:03:47;3.28;;;2.33;;
29688;SDS011;16600;47.444;8.334;2023-07-13T08:06:12;4.15;;;2.08;;
29688;SDS011;16600;47.444;8.334;2023-07-13T08:08:38;2.00;;;1.38;;
29688;SDS011;16600;47.444;8.334;2023-07-13T08:11:05;1.55;;;1.45;;
29688;SDS011;16600;47.444;8.334;2023-07-13T08:13:30;1.60;;;1.50;;
29688;SDS011;16600;47.444;8.334;2023-07-13T08:15:56;2.97;;;1.20;;
29688;SDS011;16600;47.444;8.334;2023-07-13T08:18:21;1.92;;;1.70;;
29688;SDS011;16600;47.444;8.334;2023-07-13T08:20:47;1.40;;;1.30;;
29688;SDS011;16600;47.444;8.334;2023-07-13T08:23:12;1.60;;;1.42;;
29688;SDS011;16600;47.444;8.334;2023-07-13T08:25:38;3.00;;;1.95;;
29688;SDS011;16600;47.444;8.334;2023-07-13T08:28:04;2.83;;;1.80;;
29688;SDS011;16600;47.444;8.334;2023-07-13T08:30:30;3.03;;;1.67;;
29688;SDS011;16600;47.444;8.334;2023-07-13T08:32:55;1.30;;;1.20;;
29688;SDS011;16600;47.444;8.334;2023-07-13T08:35:21;2.22;;;1.20;;
29688;SDS011;16600;47.444;8.334;2023-07-13T08:37:47;2.35;;;1.80;;
29688;SDS011;16600;47.444;8.334;2023-07-13T08:40:13;6.28;;;1.88;;
29688;SDS011;16600;47.444;8.334;2023-07-13T08:42:43;1.60;;;1.20;;
29688;SDS011;16600;47.444;8.334;2023-07-13T08:47:39;1.52;;;1.25;;
29688;SDS011;16600;47.444;8.334;2023-07-13T08:50:08;2.40;;;1.88;;
29688;SDS011;16600;47.444;8.334;2023-07-13T08:52:36;1.45;;;1.20;;
29688;SDS011;16600;47.444;8.334;2023-07-13T08:55:11;1.92;;;1.10;;
29688;SDS011;16600;47.444;8.334;2023-07-13T08:57:38;1.60;;;1.38;;
29688;SDS011;16600;47.444;8.334;2023-07-13T09:00:05;1.80;;;1.30;;
29688;SDS011;16600;47.444;8.334;2023-07-13T09:05:18;10.75;;;3.03;;
29688;SDS011;16600;47.444;8.334;2023-07-13T09:10:32;5.43;;;1.90;;
29688;SDS011;16600;47.444;8.334;2023-07-13T09:15:31;4.72;;;1.95;;
29688;SDS011;16600;47.444;8.334;2023-07-13T09:18:02;3.17;;;1.75;;
29688;SDS011;16600;47.444;8.334;2023-07-13T09:20:45;2.53;;;1.73;;
29688;SDS011;16600;47.444;8.334;2023-07-13T09:23:13;2.70;;;1.52;;
29688;SDS011;16600;47.444;8.334;2023-07-13T09:25:40;3.88;;;1.85;;
29688;SDS011;16600;47.444;8.334;2023-07-13T09:28:17;5.78;;;1.80;;
29688;SDS011;16600;47.444;8.334;2023-07-13T09:33:28;4.00;;;1.65;;
29688;SDS011;16600;47.444;8.334;2023-07-13T09:35:58;1.10;;;0.90;;
29688;SDS011;16600;47.444;8.334;2023-07-13T09:38:24;1.30;;;1.05;;
29688;SDS011;16600;47.444;8.334;2023-07-13T09:43:17;1.63;;;1.13;;
29688;SDS011;16600;47.444;8.334;2023-07-13T09:45:45;2.97;;;1.60;;
29688;SDS011;16600;47.444;8.334;2023-07-13T09:48:11;3.33;;;1.50;;
29688;SDS011;16600;47.444;8.334;2023-07-13T09:50:38;1.92;;;1.25;;
29688;SDS011;16600;47.444;8.334;2023-07-13T09:53:09;4.68;;;1.75;;
29688;SDS011;16600;47.444;8.334;2023-07-13T09:55:36;1.30;;;1.20;;
29688;SDS011;16600;47.444;8.334;2023-07-13T09:58:24;2.58;;;1.17;;
29688;SDS011;16600;47.444;8.334;2023-07-13T11:27:22;6.07;;;2.13;;
29688;SDS011;16600;47.444;8.334;2023-07-13T11:29:48;5.25;;;1.98;;
29688;SDS011;16600;47.444;8.334;2023-07-13T11:32:24;3.05;;;1.92;;
29688;SDS011;16600;47.444;8.334;2023-07-13T11:34:53;3.95;;;2.00;;
29688;SDS011;16600;47.444;8.334;2023-07-13T11:37:18;2.55;;;1.60;;
29688;SDS011;16600;47.444;8.334;2023-07-13T11:39:44;4.75;;;1.70;;
29688;SDS011;16600;47.444;8.334;2023-07-13T11:42:12;5.53;;;1.80;;
29688;SDS011;16600;47.444;8.334;2023-07-13T11:44:42;5.55;;;1.98;;
29688;SDS011;16600;47.444;8.334;2023-07-13T11:47:14;3.20;;;1.70;;
29688;SDS011;16600;47.444;8.334;2023-07-13T11:49:47;5.85;;;1.83;;
29688;SDS011;16600;47.444;8.334;2023-07-13T11:52:14;1.42;;;1.27;;
29688;SDS011;16600;47.444;8.334;2023-07-13T11:54:51;6.18;;;2.17;;
29688;SDS011;16600;47.444;8.334;2023-07-13T11:57:33;5.13;;;1.73;;
29688;SDS011;16600;47.444;8.334;2023-07-13T12:00:01;5.65;;;2.63;;
29688;SDS011;16600;47.444;8.334;2023-07-13T12:02:39;1.70;;;1.55;;
29688;SDS011;16600;47.444;8.334;2023-07-13T12:05:05;3.83;;;1.95;;
29688;SDS011;16600;47.444;8.334;2023-07-13T12:07:32;4.32;;;1.60;;
29688;SDS011;16600;47.444;8.334;2023-07-13T12:10:18;4.88;;;1.80;;
29688;SDS011;16600;47.444;8.334;2023-07-13T12:12:54;3.75;;;1.90;;
29688;SDS011;16600;47.444;8.334;2023-07-13T12:15:21;1.17;;;1.08;;
29688;SDS011;16600;47.444;8.334;2023-07-13T12:17:49;4.05;;;1.52;;
29688;SDS011;16600;47.444;8.334;2023-07-13T12:20:25;2.70;;;1.65;;
29688;SDS011;16600;47.444;8.334;2023-07-13T12:25:17;3.53;;;1.97;;
29688;SDS011;16600;47.444;8.334;2023-07-13T12:27:43;4.80;;;2.33;;
29688;SDS011;16600;47.444;8.334;2023-07-13T12:30:25;3.50;;;2.00;;
29688;SDS011;16600;47.444;8.334;2023-07-13T12:33:01;3.67;;;1.80;;
29688;SDS011;16600;47.444;8.334;2023-07-13T12:35:30;1.75;;;1.50;;
29688;SDS011;16600;47.444;8.334;2023-07-13T12:37:56;2.20;;;1.58;;
29688;SDS011;16600;47.444;8.334;2023-07-13T12:40:28;2.58;;;1.58;;
29688;SDS011;16600;47.444;8.334;2023-07-13T12:42:56;3.45;;;1.48;;
29688;SDS011;16600;47.444;8.334;2023-07-13T12:45:23;2.92;;;1.70;;
29688;SDS011;16600;47.444;8.334;2023-07-13T12:50:46;2.55;;;1.80;;
29688;SDS011;16600;47.444;8.334;2023-07-13T12:53:13;4.05;;;1.65;;
29688;SDS011;16600;47.444;8.334;2023-07-13T12:55:43;4.82;;;2.15;;
29688;SDS011;16600;47.444;8.334;2023-07-13T12:58:13;2.22;;;1.42;;
29688;SDS011;16600;47.444;8.334;2023-07-13T13:00:47;2.30;;;1.40;;
29688;SDS011;16600;47.444;8.334;2023-07-13T13:03:20;2.15;;;0.98;;
29688;SDS011;16600;47.444;8.334;2023-07-13T13:05:47;1.50;;;1.25;;
29688;SDS011;16600;47.444;8.334;2023-07-13T13:08:12;2.03;;;1.50;;
29688;SDS011;16600;47.444;8.334;2023-07-13T13:10:38;3.13;;;1.60;;
29688;SDS011;16600;47.444;8.334;2023-07-13T13:13:04;2.40;;;1.40;;
29688;SDS011;16600;47.444;8.334;2023-07-13T13:15:29;6.88;;;1.42;;
29688;SDS011;16600;47.444;8.334;2023-07-13T13:17:55;3.28;;;1.10;;
29688;SDS011;16600;47.444;8.334;2023-07-13T13:20:24;23.50;;;1.63;;
29688;SDS011;16600;47.444;8.334;2023-07-13T13:22:51;1.95;;;1.60;;
29688;SDS011;16600;47.444;8.334;2023-07-13T13:25:17;1.30;;;0.93;;
29688;SDS011;16600;47.444;8.334;2023-07-13T13:27:43;3.80;;;1.60;;
29688;SDS011;16600;47.444;8.334;2023-07-13T13:30:13;3.63;;;1.10;;
29688;SDS011;16600;47.444;8.334;2023-07-13T13:32:39;1.55;;;1.45;;
29688;SDS011;16600;47.444;8.334;2023-07-13T13:35:05;2.05;;;1.65;;
29688;SDS011;16600;47.444;8.334;2023-07-13T13:37:31;2.83;;;1.63;;
29688;SDS011;16600;47.444;8.334;2023-07-13T13:39:57;1.75;;;1.50;;
29688;SDS011;16600;47.444;8.334;2023-07-13T13:42:22;1.55;;;1.13;;
29688;SDS011;16600;47.444;8.334;2023-07-13T13:44:50;7.65;;;1.88;;
29688;SDS011;16600;47.444;8.334;2023-07-13T13:47:23;4.35;;;1.88;;
29688;SDS011;16600;47.444;8.334;2023-07-13T13:49:53;2.65;;;1.23;;
29688;SDS011;16600;47.444;8.334;2023-07-13T13:52:18;3.28;;;1.30;;
29688;SDS011;16600;47.444;8.334;2023-07-13T13:54:44;1.85;;;1.30;;
29688;SDS011;16600;47.444;8.334;2023-07-13T13:57:10;1.60;;;0.82;;
29688;SDS011;16600;47.444;8.334;2023-07-13T13:59:38;4.03;;;1.05;;
29688;SDS011;16600;47.444;8.334;2023-07-13T14:02:16;2.55;;;1.45;;
29688;SDS011;16600;47.444;8.334;2023-07-13T14:04:45;4.50;;;1.35;;
29688;SDS011;16600;47.444;8.334;2023-07-13T14:07:11;2.25;;;1.27;;
29688;SDS011;16600;47.444;8.334;2023-07-13T14:09:36;10.10;;;1.20;;
29688;SDS011;16600;47.444;8.334;2023-07-13T14:12:03;1.92;;;1.40;;
29688;SDS011;16600;47.444;8.334;2023-07-13T14:14:30;3.00;;;1.42;;
29688;SDS011;16600;47.444;8.334;2023-07-13T14:16:56;2.03;;;1.23;;
29688;SDS011;16600;47.444;8.334;2023-07-13T14:19:22;5.20;;;1.48;;
29688;SDS011;16600;47.444;8.334;2023-07-13T14:21:48;2.90;;;1.15;;
29688;SDS011;16600;47.444;8.334;2023-07-13T14:24:14;1.73;;;1.00;;
29688;SDS011;16600;47.444;8.334;2023-07-13T14:26:41;3.90;;;1.67;;
29688;SDS011;16600;47.444;8.334;2023-07-13T14:29:14;2.05;;;1.30;;
29688;SDS011;16600;47.444;8.334;2023-07-13T14:31:40;2.17;;;1.08;;
29688;SDS011;16600;47.444;8.334;2023-07-13T14:34:07;2.17;;;1.02;;
29688;SDS011;16600;47.444;8.334;2023-07-13T14:36:33;4.90;;;1.83;;
29688;SDS011;16600;47.444;8.334;2023-07-13T14:39:00;5.40;;;1.45;;
29688;SDS011;16600;47.444;8.334;2023-07-13T14:41:26;1.92;;;1.30;;
29688;SDS011;16600;47.444;8.334;2023-07-13T14:43:52;5.60;;;1.10;;
29688;SDS011;16600;47.444;8.334;2023-07-13T14:46:21;3.65;;;1.63;;
29688;SDS011;16600;47.444;8.334;2023-07-13T14:48:48;3.78;;;1.27;;
29688;SDS011;16600;47.444;8.334;2023-07-13T14:51:14;2.22;;;1.15;;
29688;SDS011;16600;47.444;8.334;2023-07-13T14:53:40;3.25;;;1.50;;
29688;SDS011;16600;47.444;8.334;2023-07-13T14:56:11;1.15;;;1.00;;
29688;SDS011;16600;47.444;8.334;2023-07-13T14:58:37;3.50;;;1.50;;
29688;SDS011;16600;47.444;8.334;2023-07-13T15:01:09;5.32;;;1.15;;
29688;SDS011;16600;47.444;8.334;2023-07-13T15:03:37;2.85;;;1.42;;
29688;SDS011;16600;47.444;8.334;2023-07-13T15:06:08;4.97;;;1.30;;
29688;SDS011;16600;47.444;8.334;2023-07-13T15:08:34;2.53;;;1.15;;
29688;SDS011;16600;47.444;8.334;2023-07-13T15:11:00;2.08;;;1.38;;
29688;SDS011;16600;47.444;8.334;2023-07-13T15:13:25;3.05;;;1.38;;
29688;SDS011;16600;47.444;8.334;2023-07-13T15:15:51;3.95;;;1.80;;
29688;SDS011;16600;47.444;8.334;2023-07-13T15:18:18;3.65;;;1.27;;
29688;SDS011;16600;47.444;8.334;2023-07-13T15:20:45;2.97;;;1.20;;
29688;SDS011;16600;47.444;8.334;2023-07-13T15:23:11;1.55;;;1.10;;
29688;SDS011;16600;47.444;8.334;2023-07-13T15:25:37;4.68;;;1.40;;
29688;SDS011;16600;47.444;8.334;2023-07-13T15:28:03;1.83;;;1.20;;
29688;SDS011;16600;47.444;8.334;2023-07-13T15:30:29;1.52;;;1.17;;
29688;SDS011;16600;47.444;8.334;2023-07-13T15:32:55;1.85;;;1.00;;
29688;SDS011;16600;47.444;8.334;2023-07-13T15:35:22;2.03;;;1.38;;
29688;SDS011;16600;47.444;8.334;2023-07-13T15:37:48;2.53;;;1.30;;
29688;SDS011;16600;47.444;8.334;2023-07-13T15:40:15;3.45;;;1.40;;
29688;SDS011;16600;47.444;8.334;2023-07-13T15:42:41;3.38;;;1.50;;
29688;SDS011;16600;47.444;8.334;2023-07-13T15:45:25;2.45;;;1.50;;
29688;SDS011;16600;47.444;8.334;2023-07-13T15:47:51;2.22;;;1.25;;
29688;SDS011;16600;47.444;8.334;2023-07-13T15:50:20;2.35;;;1.42;;
29688;SDS011;16600;47.444;8.334;2023-07-13T15:52:47;1.70;;;1.50;;
29688;SDS011;16600;47.444;8.334;2023-07-13T15:55:13;5.22;;;1.35;;
29688;SDS011;16600;47.444;8.334;2023-07-13T15:57:40;3.45;;;1.25;;
29688;SDS011;16600;47.444;8.334;2023-07-13T16:03:03;1.48;;;1.25;;
29688;SDS011;16600;47.444;8.334;2023-07-13T16:05:30;2.53;;;1.42;;
29688;SDS011;16600;47.444;8.334;2023-07-13T16:07:55;1.40;;;1.15;;
29688;SDS011;16600;47.444;8.334;2023-07-13T16:10:24;1.90;;;1.50;;
29688;SDS011;16600;47.444;8.334;2023-07-13T16:12:52;2.08;;;1.20;;
29688;SDS011;16600;47.444;8.334;2023-07-13T16:15:19;1.77;;;1.27;;
29688;SDS011;16600;47.444;8.334;2023-07-13T16:17:45;2.58;;;1.42;;
29688;SDS011;16600;47.444;8.334;2023-07-13T16:20:12;4.05;;;1.30;;
29688;SDS011;16600;47.444;8.334;2023-07-13T16:22:39;4.90;;;1.40;;
29688;SDS011;16600;47.444;8.334;2023-07-13T16:27:40;2.25;;;1.20;;
29688;SDS011;16600;47.444;8.334;2023-07-13T16:30:16;2.17;;;1.23;;
29688;SDS011;16600;47.444;8.334;2023-07-13T16:32:49;3.85;;;1.05;;
29688;SDS011;16600;47.444;8.334;2023-07-13T16:35:18;2.97;;;1.25;;
29688;SDS011;16600;47.444;8.334;2023-07-13T16:37:44;2.60;;;1.38;;
29688;SDS011;16600;47.444;8.334;2023-07-13T16:40:53;0.85;;;0.80;;
29688;SDS011;16600;47.444;8.334;2023-07-13T16:43:00;5.70;;;1.13;;
29688;SDS011;16600;47.444;8.334;2023-07-13T16:45:29;18.30;;;1.35;;
29688;SDS011;16600;47.444;8.334;2023-07-13T16:47:59;3.33;;;1.50;;
29688;SDS011;16600;47.444;8.334;2023-07-13T16:50:26;4.70;;;1.08;;
29688;SDS011;16600;47.444;8.334;2023-07-13T16:52:52;2.03;;;1.10;;
29688;SDS011;16600;47.444;8.334;2023-07-13T16:55:19;2.33;;;1.27;;
29688;SDS011;16600;47.444;8.334;2023-07-13T16:57:53;3.55;;;2.17;;
29688;SDS011;16600;47.444;8.334;2023-07-13T17:00:20;2.42;;;1.17;;
29688;SDS011;16600;47.444;8.334;2023-07-13T17:02:56;3.35;;;1.20;;
29688;SDS011;16600;47.444;8.334;2023-07-13T18:09:13;3.50;;;1.87;;
29688;SDS011;16600;47.444;8.334;2023-07-13T18:11:38;3.88;;;1.50;;
29688;SDS011;16600;47.444;8.334;2023-07-13T18:14:04;1.80;;;1.27;;
29688;SDS011;16600;47.444;8.334;2023-07-13T18:16:30;2.30;;;1.30;;
29688;SDS011;16600;47.444;8.334;2023-07-13T18:18:56;1.33;;;1.13;;
29688;SDS011;16600;47.444;8.334;2023-07-13T18:21:22;1.38;;;1.10;;
29688;SDS011;16600;47.444;8.334;2023-07-13T18:23:48;2.53;;;1.40;;
29688;SDS011;16600;47.444;8.334;2023-07-13T18:26:18;1.70;;;1.23;;
29688;SDS011;16600;47.444;8.334;2023-07-13T18:28:44;2.28;;;1.40;;
29688;SDS011;16600;47.444;8.334;2023-07-13T18:31:12;2.90;;;1.40;;
29688;SDS011;16600;47.444;8.334;2023-07-13T18:33:39;3.03;;;1.40;;
29688;SDS011;16600;47.444;8.334;2023-07-13T18:36:09;4.25;;;1.75;;
29688;SDS011;16600;47.444;8.334;2023-07-13T18:38:36;5.22;;;1.40;;
29688;SDS011;16600;47.444;8.334;2023-07-13T18:41:02;2.03;;;1.40;;
29688;SDS011;16600;47.444;8.334;2023-07-13T18:43:28;4.38;;;1.38;;
29688;SDS011;16600;47.444;8.334;2023-07-13T18:45:55;4.65;;;1.20;;
29688;SDS011;16600;47.444;8.334;2023-07-13T18:48:24;4.30;;;1.60;;
29688;SDS011;16600;47.444;8.334;2023-07-13T18:50:50;5.45;;;1.48;;
29688;SDS011;16600;47.444;8.334;2023-07-13T18:53:16;8.15;;;1.13;;
29688;SDS011;16600;47.444;8.334;2023-07-13T18:55:42;1.60;;;1.08;;
29688;SDS011;16600;47.444;8.334;2023-07-13T18:58:12;5.22;;;1.40;;
29688;SDS011;16600;47.444;8.334;2023-07-13T19:00:38;1.85;;;1.25;;
29688;SDS011;16600;47.444;8.334;2023-07-13T19:03:06;2.80;;;1.20;;
29688;SDS011;16600;47.444;8.334;2023-07-13T19:05:33;4.65;;;1.40;;
29688;SDS011;16600;47.444;8.334;2023-07-13T19:08:00;4.32;;;1.48;;
29688;SDS011;16600;47.444;8.334;2023-07-13T19:10:27;6.47;;;1.70;;
29688;SDS011;16600;47.444;8.334;2023-07-13T19:12:56;2.83;;;1.15;;
29688;SDS011;16600;47.444;8.334;2023-07-13T19:15:30;2.92;;;1.05;;
29688;SDS011;16600;47.444;8.334;2023-07-13T19:17:57;4.97;;;3.28;;
29688;SDS011;16600;47.444;8.334;2023-07-13T19:20:23;5.50;;;1.65;;
29688;SDS011;16600;47.444;8.334;2023-07-13T19:22:53;4.28;;;2.15;;
29688;SDS011;16600;47.444;8.334;2023-07-13T19:25:20;5.50;;;1.92;;
29688;SDS011;16600;47.444;8.334;2023-07-13T19:30:36;5.55;;;1.55;;
29688;SDS011;16600;47.444;8.334;2023-07-13T19:33:01;5.07;;;1.80;;
29688;SDS011;16600;47.444;8.334;2023-07-13T19:35:29;2.25;;;1.27;;
29688;SDS011;16600;47.444;8.334;2023-07-13T19:37:57;1.88;;;1.30;;
29688;SDS011;16600;47.444;8.334;2023-07-13T19:40:23;3.20;;;1.77;;
29688;SDS011;16600;47.444;8.334;2023-07-13T19:42:52;21.33;;;2.13;;
29688;SDS011;16600;47.444;8.334;2023-07-13T19:45:18;5.13;;;1.80;;
29688;SDS011;16600;47.444;8.334;2023-07-13T19:47:45;7.55;;;2.60;;
29688;SDS011;16600;47.444;8.334;2023-07-13T19:50:11;3.33;;;1.80;;
29688;SDS011;16600;47.444;8.334;2023-07-13T19:52:37;7.90;;;2.05;;
29688;SDS011;16600;47.444;8.334;2023-07-13T19:55:08;4.80;;;1.73;;
29688;SDS011;16600;47.444;8.334;2023-07-13T19:57:36;6.50;;;1.83;;
29688;SDS011;16600;47.444;8.334;2023-07-13T20:00:02;4.13;;;1.63;;
29688;SDS011;16600;47.444;8.334;2023-07-13T20:02:32;6.85;;;1.55;;
29688;SDS011;16600;47.444;8.334;2023-07-13T22:03:04;8.07;;;2.67;;
29688;SDS011;16600;47.444;8.334;2023-07-13T22:05:37;18.45;;;8.07;;
29688;SDS011;16600;47.444;8.334;2023-07-13T22:10:28;3.17;;;1.85;;
29688;SDS011;16600;47.444;8.334;2023-07-13T22:15:19;4.75;;;2.15;;
29688;SDS011;16600;47.444;8.334;2023-07-13T22:20:18;3.63;;;2.00;;
29688;SDS011;16600;47.444;8.334;2023-07-13T22:22:44;5.38;;;2.13;;
29688;SDS011;16600;47.444;8.334;2023-07-13T22:27:35;5.38;;;2.20;;
29688;SDS011;16600;47.444;8.334;2023-07-13T22:32:26;4.93;;;1.92;;
29688;SDS011;16600;47.444;8.334;2023-07-13T22:37:18;4.85;;;2.25;;
29688;SDS011;16600;47.444;8.334;2023-07-13T22:42:09;6.53;;;2.97;;
29688;SDS011;16600;47.444;8.334;2023-07-13T22:47:01;8.38;;;2.40;;
29688;SDS011;16600;47.444;8.334;2023-07-13T22:51:55;4.30;;;2.92;;
29688;SDS011;16600;47.444;8.334;2023-07-13T22:56:47;4.90;;;2.83;;
29688;SDS011;16600;47.444;8.334;2023-07-13T23:01:39;7.57;;;2.97;;